sensor_id;sensor_type;location;lat;lon;timestamp;P1;durP1;ratioP1;P2;durP2;ratioP2
52878;SDS011;38747;53.140;6.498;2023-04-30T00:00:28;7.75;;;2.97;;
52878;SDS011;38747;53.140;6.498;2023-04-30T00:02:53;7.93;;;3.17;;
52878;SDS011;38747;53.140;6.498;2023-04-30T00:05:19;8.48;;;3.13;;
52878;SDS011;38747;53.140;6.498;2023-04-30T00:07:45;6.17;;;3.20;;
52878;SDS011;38747;53.140;6.498;2023-04-30T00:10:10;8.32;;;3.15;;
52878;SDS011;38747;53.140;6.498;2023-04-30T00:12:36;7.60;;;3.33;;
52878;SDS011;38747;53.140;6.498;2023-04-30T00:15:02;7.97;;;3.10;;
52878;SDS011;38747;53.140;6.498;2023-04-30T00:17:28;7.28;;;3.15;;
52878;SDS011;38747;53.140;6.498;2023-04-30T00:19:54;7.83;;;3.53;;
52878;SDS011;38747;53.140;6.498;2023-04-30T00:22:20;9.77;;;3.40;;
52878;SDS011;38747;53.140;6.498;2023-04-30T00:24:46;6.30;;;3.17;;
52878;SDS011;38747;53.140;6.498;2023-04-30T00:27:12;11.30;;;3.70;;
52878;SDS011;38747;53.140;6.498;2023-04-30T00:29:37;7.82;;;3.20;;
52878;SDS011;38747;53.140;6.498;2023-04-30T00:32:03;7.07;;;2.93;;
52878;SDS011;38747;53.140;6.498;2023-04-30T00:34:30;8.07;;;3.38;;
52878;SDS011;38747;53.140;6.498;2023-04-30T00:36:56;7.53;;;3.15;;
52878;SDS011;38747;53.140;6.498;2023-04-30T00:39:21;7.27;;;3.33;;
52878;SDS011;38747;53.140;6.498;2023-04-30T00:41:47;6.90;;;3.08;;
52878;SDS011;38747;53.140;6.498;2023-04-30T00:44:12;6.97;;;2.70;;
52878;SDS011;38747;53.140;6.498;2023-04-30T00:46:38;4.80;;;2.40;;
52878;SDS011;38747;53.140;6.498;2023-04-30T00:49:03;7.95;;;2.88;;
52878;SDS011;38747;53.140;6.498;2023-04-30T00:51:30;6.60;;;2.70;;
52878;SDS011;38747;53.140;6.498;2023-04-30T00:53:57;8.97;;;3.03;;
52878;SDS011;38747;53.140;6.498;2023-04-30T00:56:26;8.32;;;2.90;;
52878;SDS011;38747;53.140;6.498;2023-04-30T00:58:52;7.32;;;3.20;;
52878;SDS011;38747;53.140;6.498;2023-04-30T01:01:21;5.80;;;2.47;;
52878;SDS011;38747;53.140;6.498;2023-04-30T01:03:49;6.45;;;2.40;;
52878;SDS011;38747;53.140;6.498;2023-04-30T01:06:14;6.33;;;2.50;;
52878;SDS011;38747;53.140;6.498;2023-04-30T01:08:40;6.00;;;2.47;;
52878;SDS011;38747;53.140;6.498;2023-04-30T01:16:59;7.63;;;2.75;;
52878;SDS011;38747;53.140;6.498;2023-04-30T01:19:45;6.97;;;2.70;;
52878;SDS011;38747;53.140;6.498;2023-04-30T01:24:56;6.35;;;3.10;;
52878;SDS011;38747;53.140;6.498;2023-04-30T01:30:42;6.13;;;2.78;;
52878;SDS011;38747;53.140;6.498;2023-04-30T01:33:10;6.28;;;2.47;;
52878;SDS011;38747;53.140;6.498;2023-04-30T01:40:52;6.47;;;2.80;;
52878;SDS011;38747;53.140;6.498;2023-04-30T01:43:38;7.95;;;3.00;;
52878;SDS011;38747;53.140;6.498;2023-04-30T01:46:20;6.50;;;2.60;;
52878;SDS011;38747;53.140;6.498;2023-04-30T01:48:53;6.57;;;2.50;;
52878;SDS011;38747;53.140;6.498;2023-04-30T01:51:32;5.03;;;2.40;;
52878;SDS011;38747;53.140;6.498;2023-04-30T01:54:08;6.38;;;2.65;;
52878;SDS011;38747;53.140;6.498;2023-04-30T01:56:43;7.55;;;2.67;;
52878;SDS011;38747;53.140;6.498;2023-04-30T01:59:13;8.63;;;3.15;;
52878;SDS011;38747;53.140;6.498;2023-04-30T02:01:40;6.10;;;2.43;;
52878;SDS011;38747;53.140;6.498;2023-04-30T02:04:06;7.68;;;3.00;;
52878;SDS011;38747;53.140;6.498;2023-04-30T02:06:31;7.17;;;2.50;;
52878;SDS011;38747;53.140;6.498;2023-04-30T02:08:57;8.10;;;2.55;;
52878;SDS011;38747;53.140;6.498;2023-04-30T02:11:27;5.87;;;2.57;;
52878;SDS011;38747;53.140;6.498;2023-04-30T02:13:53;7.28;;;2.50;;
52878;SDS011;38747;53.140;6.498;2023-04-30T02:16:19;7.25;;;3.08;;
52878;SDS011;38747;53.140;6.498;2023-04-30T02:18:45;7.53;;;2.57;;
52878;SDS011;38747;53.140;6.498;2023-04-30T02:21:10;6.72;;;2.80;;
52878;SDS011;38747;53.140;6.498;2023-04-30T02:23:36;8.27;;;2.83;;
52878;SDS011;38747;53.140;6.498;2023-04-30T02:26:02;7.35;;;2.85;;
52878;SDS011;38747;53.140;6.498;2023-04-30T02:28:27;6.47;;;3.27;;
52878;SDS011;38747;53.140;6.498;2023-04-30T02:30:53;7.65;;;3.35;;
52878;SDS011;38747;53.140;6.498;2023-04-30T02:33:19;7.70;;;3.10;;
52878;SDS011;38747;53.140;6.498;2023-04-30T02:35:45;6.78;;;2.80;;
52878;SDS011;38747;53.140;6.498;2023-04-30T02:38:10;7.80;;;3.10;;
52878;SDS011;38747;53.140;6.498;2023-04-30T02:40:36;8.10;;;3.10;;
52878;SDS011;38747;53.140;6.498;2023-04-30T02:43:02;8.13;;;3.03;;
52878;SDS011;38747;53.140;6.498;2023-04-30T02:45:27;6.65;;;3.30;;
52878;SDS011;38747;53.140;6.498;2023-04-30T02:47:53;7.80;;;2.90;;
52878;SDS011;38747;53.140;6.498;2023-04-30T02:50:18;7.13;;;2.70;;
52878;SDS011;38747;53.140;6.498;2023-04-30T02:52:45;6.27;;;3.00;;
52878;SDS011;38747;53.140;6.498;2023-04-30T02:55:13;7.18;;;2.90;;
52878;SDS011;38747;53.140;6.498;2023-04-30T02:57:39;8.43;;;3.13;;
52878;SDS011;38747;53.140;6.498;2023-04-30T03:00:04;7.07;;;3.27;;
52878;SDS011;38747;53.140;6.498;2023-04-30T03:02:31;7.57;;;2.60;;
52878;SDS011;38747;53.140;6.498;2023-04-30T03:04:56;7.30;;;2.80;;
52878;SDS011;38747;53.140;6.498;2023-04-30T03:07:22;6.50;;;2.83;;
52878;SDS011;38747;53.140;6.498;2023-04-30T03:09:48;10.03;;;2.80;;
52878;SDS011;38747;53.140;6.498;2023-04-30T03:12:14;7.13;;;2.88;;
52878;SDS011;38747;53.140;6.498;2023-04-30T03:14:40;6.28;;;2.80;;
52878;SDS011;38747;53.140;6.498;2023-04-30T03:17:05;7.17;;;2.57;;
52878;SDS011;38747;53.140;6.498;2023-04-30T03:19:31;7.20;;;2.80;;
52878;SDS011;38747;53.140;6.498;2023-04-30T03:21:57;6.93;;;3.20;;
52878;SDS011;38747;53.140;6.498;2023-04-30T03:24:22;7.63;;;3.15;;
52878;SDS011;38747;53.140;6.498;2023-04-30T03:26:49;7.80;;;3.22;;
52878;SDS011;38747;53.140;6.498;2023-04-30T03:29:15;7.15;;;3.25;;
52878;SDS011;38747;53.140;6.498;2023-04-30T03:31:41;6.47;;;2.93;;
52878;SDS011;38747;53.140;6.498;2023-04-30T03:34:06;6.80;;;2.75;;
52878;SDS011;38747;53.140;6.498;2023-04-30T03:36:32;6.80;;;3.00;;
52878;SDS011;38747;53.140;6.498;2023-04-30T03:38:58;7.07;;;3.20;;
52878;SDS011;38747;53.140;6.498;2023-04-30T03:41:25;7.15;;;2.85;;
52878;SDS011;38747;53.140;6.498;2023-04-30T03:43:50;8.43;;;3.20;;
52878;SDS011;38747;53.140;6.498;2023-04-30T03:46:16;7.13;;;2.80;;
52878;SDS011;38747;53.140;6.498;2023-04-30T03:48:42;7.07;;;3.10;;
52878;SDS011;38747;53.140;6.498;2023-04-30T03:51:08;6.97;;;3.00;;
52878;SDS011;38747;53.140;6.498;2023-04-30T03:53:34;8.93;;;2.80;;
52878;SDS011;38747;53.140;6.498;2023-04-30T03:55:59;6.82;;;3.00;;
52878;SDS011;38747;53.140;6.498;2023-04-30T03:58:26;6.43;;;3.10;;
52878;SDS011;38747;53.140;6.498;2023-04-30T04:00:51;8.63;;;3.10;;
52878;SDS011;38747;53.140;6.498;2023-04-30T04:03:17;7.93;;;2.90;;
52878;SDS011;38747;53.140;6.498;2023-04-30T04:05:43;7.80;;;3.08;;
52878;SDS011;38747;53.140;6.498;2023-04-30T04:08:09;6.53;;;2.92;;
52878;SDS011;38747;53.140;6.498;2023-04-30T04:10:34;5.80;;;2.60;;
52878;SDS011;38747;53.140;6.498;2023-04-30T04:13:00;8.63;;;3.10;;
52878;SDS011;38747;53.140;6.498;2023-04-30T04:15:26;7.30;;;2.93;;
52878;SDS011;38747;53.140;6.498;2023-04-30T04:17:51;6.63;;;3.03;;
52878;SDS011;38747;53.140;6.498;2023-04-30T04:20:17;6.60;;;3.00;;
52878;SDS011;38747;53.140;6.498;2023-04-30T04:22:43;8.30;;;3.10;;
52878;SDS011;38747;53.140;6.498;2023-04-30T04:25:08;7.17;;;2.90;;
52878;SDS011;38747;53.140;6.498;2023-04-30T04:27:34;9.73;;;3.00;;
52878;SDS011;38747;53.140;6.498;2023-04-30T04:30:03;7.30;;;3.40;;
52878;SDS011;38747;53.140;6.498;2023-04-30T04:32:29;6.82;;;3.05;;
52878;SDS011;38747;53.140;6.498;2023-04-30T04:34:56;7.28;;;3.47;;
52878;SDS011;38747;53.140;6.498;2023-04-30T04:37:22;7.82;;;3.00;;
52878;SDS011;38747;53.140;6.498;2023-04-30T04:39:48;8.93;;;3.10;;
52878;SDS011;38747;53.140;6.498;2023-04-30T04:42:15;6.33;;;3.27;;
52878;SDS011;38747;53.140;6.498;2023-04-30T04:44:42;7.68;;;3.28;;
52878;SDS011;38747;53.140;6.498;2023-04-30T04:47:08;7.82;;;3.55;;
52878;SDS011;38747;53.140;6.498;2023-04-30T04:49:34;8.40;;;3.17;;
52878;SDS011;38747;53.140;6.498;2023-04-30T04:52:00;8.40;;;3.07;;
52878;SDS011;38747;53.140;6.498;2023-04-30T04:54:26;7.60;;;3.40;;
52878;SDS011;38747;53.140;6.498;2023-04-30T04:56:52;8.73;;;3.10;;
52878;SDS011;38747;53.140;6.498;2023-04-30T04:59:17;8.57;;;3.00;;
52878;SDS011;38747;53.140;6.498;2023-04-30T05:01:43;8.20;;;3.20;;
52878;SDS011;38747;53.140;6.498;2023-04-30T05:04:09;8.07;;;3.30;;
52878;SDS011;38747;53.140;6.498;2023-04-30T05:06:34;6.90;;;2.90;;
52878;SDS011;38747;53.140;6.498;2023-04-30T05:09:00;7.10;;;3.03;;
52878;SDS011;38747;53.140;6.498;2023-04-30T05:11:26;10.02;;;3.25;;
52878;SDS011;38747;53.140;6.498;2023-04-30T05:13:52;8.45;;;3.20;;
52878;SDS011;38747;53.140;6.498;2023-04-30T05:16:18;8.33;;;3.30;;
52878;SDS011;38747;53.140;6.498;2023-04-30T05:18:44;10.57;;;3.40;;
52878;SDS011;38747;53.140;6.498;2023-04-30T05:21:09;9.80;;;3.87;;
52878;SDS011;38747;53.140;6.498;2023-04-30T05:23:35;7.80;;;3.88;;
52878;SDS011;38747;53.140;6.498;2023-04-30T05:26:00;9.00;;;3.80;;
52878;SDS011;38747;53.140;6.498;2023-04-30T05:28:27;10.45;;;4.22;;
52878;SDS011;38747;53.140;6.498;2023-04-30T05:30:52;8.77;;;4.65;;
52878;SDS011;38747;53.140;6.498;2023-04-30T05:33:18;12.50;;;4.77;;
52878;SDS011;38747;53.140;6.498;2023-04-30T05:35:44;11.70;;;4.83;;
52878;SDS011;38747;53.140;6.498;2023-04-30T05:38:09;13.13;;;5.10;;
52878;SDS011;38747;53.140;6.498;2023-04-30T05:40:35;12.03;;;5.57;;
52878;SDS011;38747;53.140;6.498;2023-04-30T05:43:01;11.87;;;4.90;;
52878;SDS011;38747;53.140;6.498;2023-04-30T05:45:26;12.23;;;5.00;;
52878;SDS011;38747;53.140;6.498;2023-04-30T05:47:52;13.55;;;4.97;;
52878;SDS011;38747;53.140;6.498;2023-04-30T05:50:17;9.93;;;4.50;;
52878;SDS011;38747;53.140;6.498;2023-04-30T05:52:43;10.63;;;4.45;;
52878;SDS011;38747;53.140;6.498;2023-04-30T05:55:09;13.00;;;4.70;;
52878;SDS011;38747;53.140;6.498;2023-04-30T05:57:35;12.60;;;3.90;;
52878;SDS011;38747;53.140;6.498;2023-04-30T06:00:01;9.50;;;4.00;;
52878;SDS011;38747;53.140;6.498;2023-04-30T06:02:32;10.88;;;3.95;;
52878;SDS011;38747;53.140;6.498;2023-04-30T06:04:58;10.55;;;4.10;;
52878;SDS011;38747;53.140;6.498;2023-04-30T06:07:27;11.23;;;3.67;;
52878;SDS011;38747;53.140;6.498;2023-04-30T06:09:52;8.87;;;3.70;;
52878;SDS011;38747;53.140;6.498;2023-04-30T06:12:18;10.30;;;4.07;;
52878;SDS011;38747;53.140;6.498;2023-04-30T06:14:44;12.77;;;4.50;;
52878;SDS011;38747;53.140;6.498;2023-04-30T06:17:10;10.07;;;3.47;;
52878;SDS011;38747;53.140;6.498;2023-04-30T06:19:36;8.73;;;3.38;;
52878;SDS011;38747;53.140;6.498;2023-04-30T06:22:03;10.68;;;3.50;;
52878;SDS011;38747;53.140;6.498;2023-04-30T06:24:29;7.70;;;2.97;;
52878;SDS011;38747;53.140;6.498;2023-04-30T06:26:54;10.93;;;3.13;;
52878;SDS011;38747;53.140;6.498;2023-04-30T06:29:20;8.65;;;3.55;;
52878;SDS011;38747;53.140;6.498;2023-04-30T06:31:48;8.70;;;2.97;;
52878;SDS011;38747;53.140;6.498;2023-04-30T06:34:14;8.52;;;2.85;;
52878;SDS011;38747;53.140;6.498;2023-04-30T06:36:40;7.18;;;2.60;;
52878;SDS011;38747;53.140;6.498;2023-04-30T06:39:06;10.87;;;2.87;;
52878;SDS011;38747;53.140;6.498;2023-04-30T06:41:32;9.37;;;2.77;;
52878;SDS011;38747;53.140;6.498;2023-04-30T06:43:57;10.70;;;2.87;;
52878;SDS011;38747;53.140;6.498;2023-04-30T06:46:23;11.23;;;2.75;;
52878;SDS011;38747;53.140;6.498;2023-04-30T06:48:48;9.17;;;2.80;;
52878;SDS011;38747;53.140;6.498;2023-04-30T06:51:14;7.60;;;2.50;;
52878;SDS011;38747;53.140;6.498;2023-04-30T06:53:40;7.70;;;2.40;;
52878;SDS011;38747;53.140;6.498;2023-04-30T06:56:08;10.52;;;2.92;;
52878;SDS011;38747;53.140;6.498;2023-04-30T06:58:34;8.10;;;2.40;;
52878;SDS011;38747;53.140;6.498;2023-04-30T07:00:59;10.45;;;2.35;;
52878;SDS011;38747;53.140;6.498;2023-04-30T07:03:25;8.30;;;2.17;;
52878;SDS011;38747;53.140;6.498;2023-04-30T07:05:51;9.15;;;2.13;;
52878;SDS011;38747;53.140;6.498;2023-04-30T07:08:18;9.05;;;2.10;;
52878;SDS011;38747;53.140;6.498;2023-04-30T07:10:43;10.40;;;2.23;;
52878;SDS011;38747;53.140;6.498;2023-04-30T07:13:09;8.40;;;1.80;;
52878;SDS011;38747;53.140;6.498;2023-04-30T07:15:35;6.73;;;1.80;;
52878;SDS011;38747;53.140;6.498;2023-04-30T07:18:01;11.63;;;2.08;;
52878;SDS011;38747;53.140;6.498;2023-04-30T07:20:28;6.45;;;1.80;;
52878;SDS011;38747;53.140;6.498;2023-04-30T07:22:54;9.95;;;1.88;;
52878;SDS011;38747;53.140;6.498;2023-04-30T07:25:19;8.23;;;2.00;;
52878;SDS011;38747;53.140;6.498;2023-04-30T07:27:45;9.73;;;2.05;;
52878;SDS011;38747;53.140;6.498;2023-04-30T07:30:11;9.97;;;1.77;;
52878;SDS011;38747;53.140;6.498;2023-04-30T07:32:37;8.73;;;2.25;;
52878;SDS011;38747;53.140;6.498;2023-04-30T07:35:05;6.27;;;2.10;;
52878;SDS011;38747;53.140;6.498;2023-04-30T07:37:31;9.25;;;1.90;;
52878;SDS011;38747;53.140;6.498;2023-04-30T07:39:56;6.38;;;1.98;;
52878;SDS011;38747;53.140;6.498;2023-04-30T07:42:22;9.23;;;1.83;;
52878;SDS011;38747;53.140;6.498;2023-04-30T07:44:48;7.20;;;1.92;;
52878;SDS011;38747;53.140;6.498;2023-04-30T07:47:14;6.40;;;1.90;;
52878;SDS011;38747;53.140;6.498;2023-04-30T07:49:39;13.02;;;2.22;;
52878;SDS011;38747;53.140;6.498;2023-04-30T07:52:05;8.60;;;1.90;;
52878;SDS011;38747;53.140;6.498;2023-04-30T07:54:34;7.47;;;2.20;;
52878;SDS011;38747;53.140;6.498;2023-04-30T07:57:03;9.45;;;2.00;;
52878;SDS011;38747;53.140;6.498;2023-04-30T07:59:29;8.45;;;2.03;;
52878;SDS011;38747;53.140;6.498;2023-04-30T08:01:55;8.30;;;2.28;;
52878;SDS011;38747;53.140;6.498;2023-04-30T08:04:20;10.00;;;2.10;;
52878;SDS011;38747;53.140;6.498;2023-04-30T08:06:46;9.05;;;2.25;;
52878;SDS011;38747;53.140;6.498;2023-04-30T08:09:12;6.93;;;2.00;;
52878;SDS011;38747;53.140;6.498;2023-04-30T08:11:37;11.33;;;2.30;;
52878;SDS011;38747;53.140;6.498;2023-04-30T08:14:03;11.30;;;2.85;;
52878;SDS011;38747;53.140;6.498;2023-04-30T08:16:30;8.38;;;2.28;;
52878;SDS011;38747;53.140;6.498;2023-04-30T08:18:56;10.50;;;2.03;;
52878;SDS011;38747;53.140;6.498;2023-04-30T08:21:22;8.63;;;2.42;;
52878;SDS011;38747;53.140;6.498;2023-04-30T08:23:48;9.07;;;2.25;;
52878;SDS011;38747;53.140;6.498;2023-04-30T08:26:13;9.23;;;2.20;;
52878;SDS011;38747;53.140;6.498;2023-04-30T08:28:39;9.55;;;2.05;;
52878;SDS011;38747;53.140;6.498;2023-04-30T08:31:05;5.40;;;1.70;;
52878;SDS011;38747;53.140;6.498;2023-04-30T08:33:30;10.30;;;2.20;;
52878;SDS011;38747;53.140;6.498;2023-04-30T08:35:56;6.97;;;1.80;;
52878;SDS011;38747;53.140;6.498;2023-04-30T08:38:23;9.07;;;1.85;;
52878;SDS011;38747;53.140;6.498;2023-04-30T08:40:51;7.70;;;2.03;;
52878;SDS011;38747;53.140;6.498;2023-04-30T08:43:28;7.72;;;2.00;;
52878;SDS011;38747;53.140;6.498;2023-04-30T08:45:54;7.65;;;1.95;;
52878;SDS011;38747;53.140;6.498;2023-04-30T08:48:20;9.50;;;2.50;;
52878;SDS011;38747;53.140;6.498;2023-04-30T08:50:48;7.73;;;2.00;;
52878;SDS011;38747;53.140;6.498;2023-04-30T08:53:14;10.73;;;2.40;;
52878;SDS011;38747;53.140;6.498;2023-04-30T08:55:41;10.07;;;2.67;;
52878;SDS011;38747;53.140;6.498;2023-04-30T08:58:07;10.07;;;2.07;;
52878;SDS011;38747;53.140;6.498;2023-04-30T09:00:34;8.85;;;2.05;;
52878;SDS011;38747;53.140;6.498;2023-04-30T09:03:03;8.40;;;2.00;;
52878;SDS011;38747;53.140;6.498;2023-04-30T09:05:29;8.23;;;2.60;;
52878;SDS011;38747;53.140;6.498;2023-04-30T09:07:55;7.37;;;2.30;;
52878;SDS011;38747;53.140;6.498;2023-04-30T09:10:21;7.13;;;2.30;;
52878;SDS011;38747;53.140;6.498;2023-04-30T09:15:25;6.85;;;1.90;;
52878;SDS011;38747;53.140;6.498;2023-04-30T09:18:07;9.03;;;2.20;;
52878;SDS011;38747;53.140;6.498;2023-04-30T09:20:52;8.02;;;1.85;;
52878;SDS011;38747;53.140;6.498;2023-04-30T09:23:19;7.80;;;1.90;;
52878;SDS011;38747;53.140;6.498;2023-04-30T09:25:45;8.43;;;2.53;;
52878;SDS011;38747;53.140;6.498;2023-04-30T09:28:11;8.53;;;1.97;;
52878;SDS011;38747;53.140;6.498;2023-04-30T09:30:38;5.82;;;1.90;;
52878;SDS011;38747;53.140;6.498;2023-04-30T09:33:04;7.65;;;2.00;;
52878;SDS011;38747;53.140;6.498;2023-04-30T09:35:31;10.13;;;2.45;;
52878;SDS011;38747;53.140;6.498;2023-04-30T09:37:59;6.90;;;1.70;;
52878;SDS011;38747;53.140;6.498;2023-04-30T09:40:36;8.23;;;2.00;;
52878;SDS011;38747;53.140;6.498;2023-04-30T09:43:03;7.13;;;1.80;;
52878;SDS011;38747;53.140;6.498;2023-04-30T09:45:39;8.05;;;1.80;;
52878;SDS011;38747;53.140;6.498;2023-04-30T09:48:11;10.05;;;1.80;;
52878;SDS011;38747;53.140;6.498;2023-04-30T09:50:40;7.87;;;1.63;;
52878;SDS011;38747;53.140;6.498;2023-04-30T09:53:07;5.63;;;1.58;;
52878;SDS011;38747;53.140;6.498;2023-04-30T09:55:35;6.22;;;1.45;;
52878;SDS011;38747;53.140;6.498;2023-04-30T09:58:03;6.82;;;1.55;;
52878;SDS011;38747;53.140;6.498;2023-04-30T10:00:31;6.20;;;1.80;;
52878;SDS011;38747;53.140;6.498;2023-04-30T10:02:58;9.10;;;1.70;;
52878;SDS011;38747;53.140;6.498;2023-04-30T10:05:42;5.80;;;1.58;;
52878;SDS011;38747;53.140;6.498;2023-04-30T10:11:05;6.13;;;1.90;;
52878;SDS011;38747;53.140;6.498;2023-04-30T10:13:36;7.13;;;2.00;;
52878;SDS011;38747;53.140;6.498;2023-04-30T10:16:10;7.33;;;1.90;;
52878;SDS011;38747;53.140;6.498;2023-04-30T10:18:43;9.00;;;2.47;;
52878;SDS011;38747;53.140;6.498;2023-04-30T10:21:13;8.43;;;1.92;;
52878;SDS011;38747;53.140;6.498;2023-04-30T10:23:40;6.22;;;1.83;;
52878;SDS011;38747;53.140;6.498;2023-04-30T10:26:08;7.68;;;1.65;;
52878;SDS011;38747;53.140;6.498;2023-04-30T10:28:35;8.67;;;2.00;;
52878;SDS011;38747;53.140;6.498;2023-04-30T10:31:02;8.85;;;2.08;;
52878;SDS011;38747;53.140;6.498;2023-04-30T10:36:41;6.60;;;2.03;;
52878;SDS011;38747;53.140;6.498;2023-04-30T10:39:14;7.47;;;1.67;;
52878;SDS011;38747;53.140;6.498;2023-04-30T10:41:44;7.77;;;1.83;;
52878;SDS011;38747;53.140;6.498;2023-04-30T10:44:13;4.90;;;1.52;;
52878;SDS011;38747;53.140;6.498;2023-04-30T10:46:40;7.22;;;2.10;;
52878;SDS011;38747;53.140;6.498;2023-04-30T10:49:06;7.13;;;1.67;;
52878;SDS011;38747;53.140;6.498;2023-04-30T10:51:48;7.13;;;2.22;;
52878;SDS011;38747;53.140;6.498;2023-04-30T10:54:30;8.65;;;1.73;;
52878;SDS011;38747;53.140;6.498;2023-04-30T10:57:13;7.15;;;1.98;;
52878;SDS011;38747;53.140;6.498;2023-04-30T10:59:42;6.60;;;2.05;;
52878;SDS011;38747;53.140;6.498;2023-04-30T11:02:11;5.27;;;1.80;;
52878;SDS011;38747;53.140;6.498;2023-04-30T11:07:46;5.32;;;2.08;;
52878;SDS011;38747;53.140;6.498;2023-04-30T11:10:15;6.65;;;1.85;;
52878;SDS011;38747;53.140;6.498;2023-04-30T11:12:47;6.70;;;1.90;;
52878;SDS011;38747;53.140;6.498;2023-04-30T11:15:19;6.53;;;2.20;;
52878;SDS011;38747;53.140;6.498;2023-04-30T11:17:48;6.15;;;1.80;;
52878;SDS011;38747;53.140;6.498;2023-04-30T11:20:20;5.28;;;1.70;;
52878;SDS011;38747;53.140;6.498;2023-04-30T11:22:47;9.38;;;2.00;;
52878;SDS011;38747;53.140;6.498;2023-04-30T11:25:38;8.40;;;1.90;;
52878;SDS011;38747;53.140;6.498;2023-04-30T11:28:12;6.77;;;1.87;;
52878;SDS011;38747;53.140;6.498;2023-04-30T11:30:40;5.72;;;1.65;;
52878;SDS011;38747;53.140;6.498;2023-04-30T11:33:28;6.95;;;1.60;;
52878;SDS011;38747;53.140;6.498;2023-04-30T11:35:55;6.28;;;1.75;;
52878;SDS011;38747;53.140;6.498;2023-04-30T11:38:26;7.32;;;1.83;;
52878;SDS011;38747;53.140;6.498;2023-04-30T11:40:54;5.70;;;1.83;;
52878;SDS011;38747;53.140;6.498;2023-04-30T11:43:24;6.35;;;1.90;;
52878;SDS011;38747;53.140;6.498;2023-04-30T11:46:05;6.97;;;2.17;;
52878;SDS011;38747;53.140;6.498;2023-04-30T11:48:39;6.97;;;1.90;;
52878;SDS011;38747;53.140;6.498;2023-04-30T11:51:13;8.52;;;1.80;;
52878;SDS011;38747;53.140;6.498;2023-04-30T11:53:46;7.43;;;2.00;;
52878;SDS011;38747;53.140;6.498;2023-04-30T11:56:13;6.93;;;2.00;;
52878;SDS011;38747;53.140;6.498;2023-04-30T11:58:41;6.82;;;2.05;;
52878;SDS011;38747;53.140;6.498;2023-04-30T12:01:10;6.07;;;1.73;;
52878;SDS011;38747;53.140;6.498;2023-04-30T12:03:42;6.80;;;1.87;;
52878;SDS011;38747;53.140;6.498;2023-04-30T12:06:10;8.82;;;2.00;;
52878;SDS011;38747;53.140;6.498;2023-04-30T12:08:45;6.00;;;1.83;;
52878;SDS011;38747;53.140;6.498;2023-04-30T12:11:24;4.55;;;1.60;;
52878;SDS011;38747;53.140;6.498;2023-04-30T12:13:52;5.40;;;1.90;;
52878;SDS011;38747;53.140;6.498;2023-04-30T12:16:27;6.97;;;2.03;;
52878;SDS011;38747;53.140;6.498;2023-04-30T12:19:02;6.60;;;1.60;;
52878;SDS011;38747;53.140;6.498;2023-04-30T12:21:28;4.97;;;1.70;;
52878;SDS011;38747;53.140;6.498;2023-04-30T12:23:54;5.93;;;1.93;;
52878;SDS011;38747;53.140;6.498;2023-04-30T12:26:19;7.13;;;1.73;;
52878;SDS011;38747;53.140;6.498;2023-04-30T12:28:46;7.15;;;2.05;;
52878;SDS011;38747;53.140;6.498;2023-04-30T12:31:13;6.77;;;1.90;;
52878;SDS011;38747;53.140;6.498;2023-04-30T12:33:42;4.88;;;1.80;;
52878;SDS011;38747;53.140;6.498;2023-04-30T12:36:11;4.95;;;1.80;;
52878;SDS011;38747;53.140;6.498;2023-04-30T12:38:41;7.18;;;1.92;;
52878;SDS011;38747;53.140;6.498;2023-04-30T12:41:10;5.47;;;1.90;;
52878;SDS011;38747;53.140;6.498;2023-04-30T12:43:39;6.95;;;1.88;;
52878;SDS011;38747;53.140;6.498;2023-04-30T12:46:05;4.47;;;1.42;;
52878;SDS011;38747;53.140;6.498;2023-04-30T12:48:30;5.55;;;1.80;;
52878;SDS011;38747;53.140;6.498;2023-04-30T12:51:09;7.10;;;1.90;;
52878;SDS011;38747;53.140;6.498;2023-04-30T12:53:43;4.43;;;1.58;;
52878;SDS011;38747;53.140;6.498;2023-04-30T12:56:14;5.10;;;1.70;;
52878;SDS011;38747;53.140;6.498;2023-04-30T12:58:41;5.43;;;1.60;;
52878;SDS011;38747;53.140;6.498;2023-04-30T13:01:10;6.63;;;1.90;;
52878;SDS011;38747;53.140;6.498;2023-04-30T13:03:37;6.30;;;2.00;;
52878;SDS011;38747;53.140;6.498;2023-04-30T13:06:02;8.10;;;2.25;;
52878;SDS011;38747;53.140;6.498;2023-04-30T13:08:29;7.15;;;2.22;;
52878;SDS011;38747;53.140;6.498;2023-04-30T13:10:55;5.90;;;2.10;;
52878;SDS011;38747;53.140;6.498;2023-04-30T13:13:20;7.35;;;2.33;;
52878;SDS011;38747;53.140;6.498;2023-04-30T13:15:46;5.40;;;2.37;;
52878;SDS011;38747;53.140;6.498;2023-04-30T13:18:12;5.68;;;1.90;;
52878;SDS011;38747;53.140;6.498;2023-04-30T13:20:39;5.03;;;1.60;;
52878;SDS011;38747;53.140;6.498;2023-04-30T13:23:05;4.28;;;1.60;;
52878;SDS011;38747;53.140;6.498;2023-04-30T13:25:31;5.27;;;1.90;;
52878;SDS011;38747;53.140;6.498;2023-04-30T13:28:00;6.32;;;2.08;;
52878;SDS011;38747;53.140;6.498;2023-04-30T13:30:25;6.10;;;2.20;;
52878;SDS011;38747;53.140;6.498;2023-04-30T13:32:51;7.57;;;2.08;;
52878;SDS011;38747;53.140;6.498;2023-04-30T13:35:18;4.68;;;1.90;;
52878;SDS011;38747;53.140;6.498;2023-04-30T13:37:43;7.50;;;2.23;;
52878;SDS011;38747;53.140;6.498;2023-04-30T13:40:09;6.15;;;2.10;;
52878;SDS011;38747;53.140;6.498;2023-04-30T13:42:39;7.43;;;2.20;;
52878;SDS011;38747;53.140;6.498;2023-04-30T13:45:07;6.95;;;2.20;;
52878;SDS011;38747;53.140;6.498;2023-04-30T13:47:33;5.90;;;1.90;;
52878;SDS011;38747;53.140;6.498;2023-04-30T13:49:59;6.45;;;2.00;;
52878;SDS011;38747;53.140;6.498;2023-04-30T13:52:25;6.40;;;1.95;;
52878;SDS011;38747;53.140;6.498;2023-04-30T13:54:51;6.03;;;2.07;;
52878;SDS011;38747;53.140;6.498;2023-04-30T13:57:17;5.03;;;1.58;;
52878;SDS011;38747;53.140;6.498;2023-04-30T13:59:42;4.60;;;1.57;;
52878;SDS011;38747;53.140;6.498;2023-04-30T14:02:08;4.70;;;1.52;;
52878;SDS011;38747;53.140;6.498;2023-04-30T14:04:34;5.22;;;1.70;;
52878;SDS011;38747;53.140;6.498;2023-04-30T14:07:01;5.27;;;1.57;;
52878;SDS011;38747;53.140;6.498;2023-04-30T14:09:27;4.93;;;1.63;;
52878;SDS011;38747;53.140;6.498;2023-04-30T14:11:53;5.07;;;1.58;;
52878;SDS011;38747;53.140;6.498;2023-04-30T14:14:21;4.70;;;1.73;;
52878;SDS011;38747;53.140;6.498;2023-04-30T14:16:47;5.00;;;1.90;;
52878;SDS011;38747;53.140;6.498;2023-04-30T14:19:13;5.93;;;2.03;;
52878;SDS011;38747;53.140;6.498;2023-04-30T14:21:38;6.30;;;1.98;;
52878;SDS011;38747;53.140;6.498;2023-04-30T14:24:04;5.60;;;1.88;;
52878;SDS011;38747;53.140;6.498;2023-04-30T14:26:30;4.57;;;1.50;;
52878;SDS011;38747;53.140;6.498;2023-04-30T14:28:56;4.68;;;1.42;;
52878;SDS011;38747;53.140;6.498;2023-04-30T14:31:22;4.60;;;1.50;;
52878;SDS011;38747;53.140;6.498;2023-04-30T14:33:47;4.83;;;1.40;;
52878;SDS011;38747;53.140;6.498;2023-04-30T14:36:13;3.97;;;1.60;;
52878;SDS011;38747;53.140;6.498;2023-04-30T14:38:39;5.70;;;1.80;;
52878;SDS011;38747;53.140;6.498;2023-04-30T14:41:04;4.20;;;1.50;;
52878;SDS011;38747;53.140;6.498;2023-04-30T14:43:30;6.63;;;1.90;;
52878;SDS011;38747;53.140;6.498;2023-04-30T14:45:56;6.03;;;1.70;;
52878;SDS011;38747;53.140;6.498;2023-04-30T14:48:22;6.15;;;1.60;;
52878;SDS011;38747;53.140;6.498;2023-04-30T14:50:47;6.32;;;1.63;;
52878;SDS011;38747;53.140;6.498;2023-04-30T14:53:13;4.93;;;1.47;;
52878;SDS011;38747;53.140;6.498;2023-04-30T14:55:38;3.93;;;1.27;;
52878;SDS011;38747;53.140;6.498;2023-04-30T14:58:04;5.05;;;1.58;;
52878;SDS011;38747;53.140;6.498;2023-04-30T15:00:30;4.77;;;1.20;;
52878;SDS011;38747;53.140;6.498;2023-04-30T15:02:57;5.25;;;1.50;;
52878;SDS011;38747;53.140;6.498;2023-04-30T15:05:23;6.53;;;1.52;;
52878;SDS011;38747;53.140;6.498;2023-04-30T15:07:49;4.32;;;1.50;;
52878;SDS011;38747;53.140;6.498;2023-04-30T15:10:14;4.53;;;1.70;;
52878;SDS011;38747;53.140;6.498;2023-04-30T15:12:40;5.70;;;1.40;;
52878;SDS011;38747;53.140;6.498;2023-04-30T15:15:06;5.97;;;1.63;;